createdAt,value
2023-03-07T00:01:32.672Z,84.14
2023-03-07T00:04:02.343Z,84.08
2023-03-07T00:06:32.922Z,83.81
2023-03-07T00:09:03.761Z,83.33
2023-03-07T00:11:32.496Z,83.04
2023-03-07T00:14:01.255Z,83.13
2023-03-07T00:16:30.018Z,83.57
2023-03-07T00:18:59.018Z,84.41
2023-03-07T00:21:31.382Z,84.80
2023-03-07T00:24:01.495Z,84.74
2023-03-07T00:26:30.552Z,85.27
2023-03-07T00:28:59.312Z,84.15
2023-03-07T00:31:28.058Z,83.78
2023-03-07T00:33:56.787Z,83.42
2023-03-07T00:36:25.942Z,83.59
2023-03-07T00:38:55.602Z,84.08
2023-03-07T00:41:28.546Z,83.95
2023-03-07T00:43:57.800Z,83.65
2023-03-07T00:46:27.978Z,83.82
2023-03-07T00:48:57.015Z,83.99
2023-03-07T00:51:26.179Z,83.65
2023-03-07T00:53:55.311Z,83.82
2023-03-07T01:01:26.776Z,84.13
2023-03-07T01:03:56.310Z,84.33
2023-03-07T01:06:27.978Z,83.66
2023-03-07T01:09:01.699Z,83.93
2023-03-07T01:11:33.002Z,84.46
2023-03-07T01:14:05.187Z,83.69
2023-03-07T01:16:39.585Z,83.67
2023-03-07T01:19:12.632Z,83.74
2023-03-07T01:21:44.334Z,83.84
2023-03-07T01:24:16.194Z,83.39
2023-03-07T01:26:45.192Z,83.76
2023-03-07T01:29:14.063Z,83.81
2023-03-07T01:31:44.214Z,84.15
2023-03-07T01:34:12.919Z,83.80
2023-03-07T01:36:42.876Z,83.72
2023-03-07T01:39:16.897Z,83.84
2023-03-07T01:41:53.308Z,83.42
2023-03-07T01:44:27.430Z,83.63
2023-03-07T01:47:00.191Z,83.24
2023-03-07T01:49:42.195Z,83.28
2023-03-07T01:52:16.078Z,83.50
2023-03-07T01:54:53.880Z,83.16
2023-03-07T01:57:30.231Z,83.93
2023-03-07T02:00:07.044Z,83.60
2023-03-07T02:02:46.498Z,83.53
2023-03-07T02:05:27.192Z,83.36
2023-03-07T02:08:02.221Z,83.34
2023-03-07T02:10:35.131Z,83.52
2023-03-07T02:13:04.883Z,83.53
2023-03-07T02:15:35.622Z,83.74
2023-03-07T02:18:06.900Z,83.80
2023-03-07T02:20:46.633Z,83.29
2023-03-07T02:23:24.931Z,83.31
2023-03-07T02:26:03.248Z,83.15
2023-03-07T02:28:35.108Z,84.38
2023-03-07T02:31:09.274Z,83.71
2023-03-07T02:33:40.037Z,83.98
2023-03-07T02:36:29.445Z,84.10
2023-03-07T02:39:18.192Z,84.58
2023-03-07T02:41:47.181Z,84.57
2023-03-07T02:44:26.102Z,84.57
2023-03-07T02:46:54.791Z,84.93
2023-03-07T02:49:27.160Z,84.45
2023-03-07T02:52:00.521Z,84.92
2023-03-07T02:54:30.262Z,84.28
2023-03-07T02:56:59.949Z,84.06
2023-03-07T02:59:30.173Z,83.78
2023-03-07T03:01:59.490Z,83.50
2023-03-07T03:04:28.271Z,83.67
2023-03-07T03:06:57.040Z,83.68
2023-03-07T03:09:26.074Z,83.35
2023-03-07T03:11:54.873Z,83.30
2023-03-07T03:14:26.807Z,83.47
2023-03-07T03:16:57.038Z,83.56
2023-03-07T03:19:25.902Z,83.35
2023-03-07T03:21:54.605Z,82.98
2023-03-07T03:24:23.444Z,82.85
2023-03-07T03:26:52.559Z,83.09
2023-03-07T03:29:23.329Z,82.91
2023-03-07T03:31:52.598Z,82.86
2023-03-07T03:34:23.383Z,82.46
2023-03-07T03:36:53.617Z,82.74
2023-03-07T03:39:23.197Z,82.59
2023-03-07T03:41:57.259Z,83.65
2023-03-07T03:44:26.286Z,84.18
2023-03-07T03:46:55.891Z,83.42
2023-03-07T03:49:27.508Z,83.17
2023-03-07T03:51:57.224Z,82.88
2023-03-07T03:54:26.544Z,83.01
2023-03-07T03:56:55.807Z,82.65
2023-03-07T03:59:25.599Z,83.03
2023-03-07T04:01:55.529Z,82.71
2023-03-07T04:04:26.639Z,82.96
2023-03-07T04:06:55.465Z,82.59
2023-03-07T04:09:24.153Z,83.13
2023-03-07T04:11:52.973Z,83.06
2023-03-07T04:14:22.278Z,82.54
2023-03-07T04:16:51.629Z,83.25
2023-03-07T04:19:22.031Z,83.45
2023-03-07T04:21:52.794Z,83.24
2023-03-07T04:24:22.438Z,83.05
2023-03-07T04:26:51.317Z,82.69
2023-03-07T04:29:20.479Z,82.65
2023-03-07T04:32:05.286Z,82.79
2023-03-07T04:34:34.014Z,82.57
2023-03-07T04:37:04.222Z,82.53
2023-03-07T04:39:32.930Z,82.59
2023-03-07T04:42:02.436Z,82.51
2023-03-07T04:44:36.684Z,82.84
2023-03-07T04:47:05.713Z,82.59
2023-03-07T04:49:37.648Z,82.83
2023-03-07T04:52:10.707Z,83.11
2023-03-07T04:54:41.019Z,82.98
2023-03-07T04:57:10.787Z,82.97
2023-03-07T04:59:40.183Z,83.30
2023-03-07T05:02:14.054Z,83.13
2023-03-07T05:04:44.181Z,83.21
2023-03-07T05:07:17.023Z,82.72
2023-03-07T05:09:46.089Z,82.66
2023-03-07T05:12:15.183Z,83.08
2023-03-07T05:14:44.266Z,82.91
2023-03-07T05:17:13.375Z,83.28
2023-03-07T05:19:42.325Z,83.40
2023-03-07T05:22:13.455Z,83.45
2023-03-07T05:24:44.939Z,83.26
2023-03-07T05:27:14.259Z,82.73
2023-03-07T05:29:44.099Z,83.17
2023-03-07T05:32:15.003Z,83.26
2023-03-07T05:34:45.239Z,83.39
2023-03-07T05:37:16.664Z,83.08
2023-03-07T05:39:46.852Z,82.73
2023-03-07T05:42:15.705Z,83.07
2023-03-07T05:44:45.569Z,83.26
2023-03-07T05:47:14.664Z,83.56
2023-03-07T05:49:44.277Z,83.30
2023-03-07T05:52:18.263Z,83.05
2023-03-07T05:54:49.536Z,83.10
2023-03-07T05:57:21.835Z,82.47
2023-03-07T05:59:50.780Z,82.95
2023-03-07T06:02:20.080Z,82.75
2023-03-07T06:04:49.071Z,82.74
2023-03-07T06:07:27.744Z,82.49
2023-03-07T06:09:56.478Z,82.31
2023-03-07T06:12:25.311Z,82.37
2023-03-07T06:14:54.028Z,82.66
2023-03-07T06:17:22.787Z,82.55
2023-03-07T06:19:52.304Z,82.74
2023-03-07T06:22:21.667Z,82.72
2023-03-07T06:24:51.957Z,82.14
2023-03-07T06:27:20.672Z,82.87
2023-03-07T06:29:49.533Z,81.02
2023-03-07T06:32:18.447Z,81.46
2023-03-07T06:34:47.212Z,81.54
2023-03-07T06:37:16.090Z,82.40
2023-03-07T06:39:45.104Z,82.04
2023-03-07T06:42:15.389Z,82.00
2023-03-07T06:44:44.202Z,82.28
2023-03-07T06:47:13.362Z,82.24
2023-03-07T06:49:42.092Z,82.96
2023-03-07T06:52:11.094Z,83.58
2023-03-07T06:54:39.804Z,83.39
2023-03-07T06:57:09.099Z,83.09
2023-03-07T06:59:40.128Z,82.78
2023-03-07T07:02:14.646Z,83.19
2023-03-07T07:04:43.636Z,83.05
2023-03-07T07:07:12.666Z,82.98
2023-03-07T07:09:41.639Z,82.60
2023-03-07T07:12:10.669Z,82.64
2023-03-07T07:14:40.874Z,82.23
2023-03-07T07:17:09.634Z,83.16
2023-03-07T07:19:38.389Z,82.97
2023-03-07T07:22:08.712Z,82.82
2023-03-07T07:27:14.864Z,82.79
2023-03-07T07:29:43.395Z,82.96
2023-03-07T07:32:11.471Z,82.32
2023-03-07T07:34:39.264Z,82.49
2023-03-07T07:37:08.818Z,82.26
2023-03-07T07:39:37.638Z,82.00
2023-03-07T07:42:06.695Z,82.47
2023-03-07T07:44:49.076Z,81.12
2023-03-07T07:47:17.926Z,80.97
2023-03-07T07:49:46.713Z,80.73
2023-03-07T07:52:16.217Z,79.49
2023-03-07T07:54:44.916Z,81.39
2023-03-07T07:57:13.645Z,82.06
2023-03-07T07:59:44.369Z,81.72
2023-03-07T08:02:15.658Z,81.94
2023-03-07T08:04:46.126Z,82.60
2023-03-07T08:07:15.340Z,82.83
2023-03-07T08:09:44.094Z,83.24
2023-03-07T08:12:13.746Z,83.03
2023-03-07T08:14:42.460Z,83.06
2023-03-07T08:17:11.169Z,83.38
2023-03-07T08:19:41.368Z,81.07
2023-03-07T08:22:10.062Z,81.91
2023-03-07T08:24:40.785Z,82.21
2023-03-07T08:27:09.693Z,83.15
2023-03-07T08:29:38.530Z,83.19
2023-03-07T08:32:09.125Z,81.63
2023-03-07T08:34:38.603Z,81.56
2023-03-07T08:37:08.695Z,80.32
2023-03-07T08:39:37.623Z,81.04
2023-03-07T08:42:07.003Z,80.58
2023-03-07T08:47:26.787Z,80.11
2023-03-07T08:49:54.304Z,78.14
2023-03-07T08:52:21.964Z,79.06
2023-03-07T08:54:50.673Z,77.30
2023-03-07T08:57:19.421Z,78.24
2023-03-07T08:59:48.142Z,78.27
2023-03-07T09:02:16.859Z,77.33
2023-03-07T09:04:47.051Z,76.61
2023-03-07T09:07:15.758Z,76.74
2023-03-07T09:09:44.588Z,76.92
2023-03-07T09:12:14.843Z,77.32
2023-03-07T09:14:43.772Z,76.60
2023-03-07T09:17:12.474Z,75.79
2023-03-07T09:19:42.485Z,75.19
2023-03-07T09:22:12.577Z,75.70
2023-03-07T09:24:41.269Z,74.71
2023-03-07T09:27:11.499Z,71.97
2023-03-07T09:29:40.162Z,72.31
2023-03-07T09:32:09.541Z,73.10
2023-03-07T09:34:38.313Z,72.96
2023-03-07T09:37:07.032Z,73.00
2023-03-07T09:39:37.248Z,74.05
2023-03-07T09:42:22.533Z,74.18
2023-03-07T09:45:17.385Z,73.93
2023-03-07T09:48:38.310Z,73.57
2023-03-07T09:51:19.648Z,73.89
2023-03-07T09:53:54.355Z,74.00
2023-03-07T09:56:33.941Z,73.78
2023-03-07T09:59:21.969Z,73.72
2023-03-07T10:02:05.401Z,74.02
2023-03-07T10:04:44.583Z,73.69
2023-03-07T10:07:18.393Z,72.53
2023-03-07T10:09:48.286Z,72.71
2023-03-07T10:12:52.804Z,70.93
2023-03-07T10:15:45.594Z,72.37
2023-03-07T10:18:35.442Z,70.83
2023-03-07T10:21:19.730Z,71.87
2023-03-07T10:24:37.791Z,70.82
2023-03-07T10:27:10.081Z,70.56
2023-03-07T10:29:49.018Z,69.94
2023-03-07T10:32:33.636Z,70.40
2023-03-07T10:35:16.909Z,71.04
2023-03-07T10:37:51.554Z,71.17
2023-03-07T10:40:27.721Z,69.39
2023-03-07T10:42:59.530Z,68.38
2023-03-07T10:45:33.216Z,68.83
2023-03-07T10:48:08.143Z,69.14
2023-03-07T10:50:46.180Z,68.37
2023-03-07T10:53:27.608Z,68.63
2023-03-07T10:56:13.483Z,67.74
2023-03-07T10:59:01.561Z,66.25
2023-03-07T11:01:32.884Z,66.36
2023-03-07T11:04:05.101Z,65.47
2023-03-07T11:06:39.188Z,64.78
2023-03-07T11:09:19.002Z,64.45
2023-03-07T11:11:56.749Z,63.61
2023-03-07T11:14:27.028Z,63.27
2023-03-07T11:17:00.425Z,63.68
2023-03-07T11:19:39.224Z,63.56
2023-03-07T11:22:28.772Z,64.12
2023-03-07T11:25:02.713Z,63.12
2023-03-07T11:27:48.588Z,63.64
2023-03-07T11:30:26.360Z,61.37
2023-03-07T11:33:08.802Z,61.04
2023-03-07T11:35:58.559Z,61.16
2023-03-07T11:38:46.976Z,60.72
2023-03-07T11:41:27.366Z,62.04
2023-03-07T11:44:17.959Z,62.20
2023-03-07T11:47:29.938Z,62.13
2023-03-07T11:50:22.966Z,63.37
2023-03-07T11:53:27.428Z,62.47
2023-03-07T11:56:24.677Z,63.28
2023-03-07T11:59:30.472Z,64.20
2023-03-07T12:02:02.773Z,63.02
2023-03-07T12:05:16.644Z,62.71
2023-03-07T12:08:30.702Z,61.59
2023-03-07T12:11:16.001Z,62.21
2023-03-07T12:14:01.472Z,62.42
2023-03-07T12:16:47.707Z,61.61
2023-03-07T12:19:54.643Z,63.17
2023-03-07T12:22:32.240Z,62.11
2023-03-07T12:25:25.398Z,62.01
2023-03-07T12:28:08.141Z,62.17
2023-03-07T12:30:52.976Z,61.06
2023-03-07T12:33:37.302Z,59.92
2023-03-07T12:36:11.006Z,61.00
2023-03-07T12:38:52.497Z,60.02
2023-03-07T12:41:41.087Z,59.74
2023-03-07T12:44:22.086Z,60.96
2023-03-07T12:46:59.819Z,60.68
2023-03-07T12:49:49.699Z,59.14
2023-03-07T12:52:33.107Z,57.60
2023-03-07T12:55:17.689Z,58.50
2023-03-07T12:57:56.969Z,59.62
2023-03-07T13:00:27.272Z,58.66
2023-03-07T13:03:04.385Z,58.45
2023-03-07T13:05:38.294Z,57.18
2023-03-07T13:08:09.301Z,59.08
2023-03-07T13:10:39.487Z,59.14
2023-03-07T13:13:53.262Z,60.14
2023-03-07T13:16:44.717Z,59.34
2023-03-07T13:19:54.076Z,58.02
2023-03-07T13:23:12.974Z,57.31
2023-03-07T13:25:57.153Z,57.94
2023-03-07T13:28:51.452Z,56.26
2023-03-07T13:31:44.874Z,55.27
2023-03-07T13:34:51.505Z,56.54
2023-03-07T13:37:56.802Z,56.49
2023-03-07T13:40:54.512Z,56.81
2023-03-07T13:44:05.036Z,56.68
2023-03-07T13:46:49.008Z,57.75
2023-03-07T13:49:50.822Z,57.96
2023-03-07T13:52:46.008Z,58.33
2023-03-07T13:55:34.780Z,58.41
2023-03-07T13:58:20.985Z,58.26
2023-03-07T14:00:57.391Z,58.06
2023-03-07T14:03:33.151Z,57.82
2023-03-07T14:06:10.688Z,58.38
2023-03-07T14:08:40.486Z,57.67
2023-03-07T14:11:24.002Z,57.03
2023-03-07T14:14:20.604Z,55.72
2023-03-07T14:17:08.393Z,57.40
2023-03-07T14:19:56.010Z,58.27
2023-03-07T14:22:46.224Z,56.39
2023-03-07T14:25:40.061Z,59.14
2023-03-07T14:28:23.282Z,58.08
2023-03-07T14:30:59.355Z,59.22
2023-03-07T14:33:36.782Z,59.79
2023-03-07T14:36:19.141Z,60.08
2023-03-07T14:38:49.864Z,60.43
2023-03-07T14:41:46.934Z,60.23
2023-03-07T14:44:49.260Z,60.41
2023-03-07T14:47:44.006Z,59.62
2023-03-07T14:50:18.911Z,61.56
2023-03-07T14:52:50.278Z,60.10
2023-03-07T15:32:07.226Z,56.77
2023-03-07T15:34:40.081Z,57.48
2023-03-07T15:37:23.390Z,56.44
2023-03-07T15:40:01.487Z,56.49
2023-03-07T15:42:31.385Z,56.84
2023-03-07T15:45:18.161Z,56.91
2023-03-07T15:47:48.625Z,57.11
2023-03-07T15:50:27.054Z,56.63
2023-03-07T15:53:03.565Z,56.01
2023-03-07T15:55:32.596Z,57.77
2023-03-07T15:58:04.498Z,57.95
2023-03-07T16:00:36.716Z,58.24
2023-03-07T16:03:35.568Z,57.76
2023-03-07T16:06:04.830Z,57.72
2023-03-07T16:08:33.740Z,57.16
2023-03-07T16:11:06.785Z,56.69
2023-03-07T16:13:43.539Z,57.69
2023-03-07T16:16:23.353Z,56.04
2023-03-07T16:18:57.449Z,57.24
2023-03-07T16:21:27.468Z,57.34
2023-03-07T16:23:56.465Z,57.71
2023-03-07T16:26:26.451Z,56.44
2023-03-07T16:28:56.167Z,58.26
2023-03-07T16:31:24.921Z,57.97
2023-03-07T16:33:56.002Z,57.94
2023-03-07T16:36:24.893Z,58.07
2023-03-07T16:38:53.767Z,57.57
2023-03-07T16:41:24.221Z,57.76
2023-03-07T16:43:56.213Z,57.55
2023-03-07T16:46:26.696Z,57.95
2023-03-07T16:48:57.359Z,58.42
2023-03-07T16:51:28.283Z,58.01
2023-03-07T16:53:59.838Z,58.66
2023-03-07T16:56:33.965Z,58.05
2023-03-07T16:59:03.532Z,58.12
2023-03-07T17:01:32.435Z,58.19
2023-03-07T17:04:04.960Z,57.48
2023-03-07T17:06:39.401Z,56.41
2023-03-07T17:09:14.690Z,56.87
2023-03-07T17:11:49.412Z,57.13
2023-03-07T17:14:21.089Z,56.22
2023-03-07T17:16:55.059Z,56.81
2023-03-07T17:19:59.374Z,56.50
2023-03-07T17:22:33.695Z,57.12
2023-03-07T17:25:05.257Z,56.32
2023-03-07T17:27:36.590Z,57.39
2023-03-07T17:39:29.537Z,63.51
2023-03-07T17:41:59.185Z,65.98
2023-03-07T17:44:32.148Z,67.19
2023-03-07T17:47:01.425Z,67.62
2023-03-07T17:50:10.361Z,68.47
2023-03-07T17:52:43.636Z,69.49
2023-03-07T17:55:17.337Z,69.16
2023-03-07T17:57:49.065Z,69.99
2023-03-07T18:00:21.258Z,70.87
2023-03-07T18:02:50.598Z,71.98
2023-03-07T18:05:20.388Z,73.55
2023-03-07T18:07:51.570Z,74.27
2023-03-07T18:10:23.075Z,73.74
2023-03-07T18:12:53.925Z,74.26
2023-03-07T18:15:24.567Z,74.45
2023-03-07T18:17:53.652Z,75.20
2023-03-07T18:20:22.976Z,74.39
2023-03-07T18:22:51.665Z,74.80
2023-03-07T18:25:26.660Z,75.81
2023-03-07T18:27:56.690Z,75.46
2023-03-07T18:30:27.596Z,75.47
2023-03-07T18:32:59.207Z,74.79
2023-03-07T18:35:31.931Z,75.55
2023-03-07T18:38:00.820Z,74.96
2023-03-07T18:40:32.061Z,74.76
2023-03-07T18:43:01.844Z,74.24
2023-03-07T18:45:30.770Z,73.98
2023-03-07T18:48:06.013Z,74.68
2023-03-07T18:50:34.757Z,75.04
2023-03-07T18:53:05.025Z,74.42
2023-03-07T18:55:40.216Z,74.58
2023-03-07T18:58:10.020Z,74.62
2023-03-07T19:00:39.858Z,74.52
2023-03-07T19:03:08.663Z,74.28
2023-03-07T19:05:44.122Z,73.97
2023-03-07T19:08:13.370Z,73.91
2023-03-07T19:10:45.150Z,73.60
2023-03-07T19:13:15.883Z,73.68
2023-03-07T19:15:44.991Z,73.43
2023-03-07T19:18:13.780Z,73.54
2023-03-07T19:20:42.938Z,73.57
2023-03-07T19:23:11.598Z,73.87
2023-03-07T19:25:42.718Z,73.43
2023-03-07T19:28:11.518Z,73.15
2023-03-07T19:30:41.332Z,74.33
2023-03-07T19:33:11.320Z,73.94
2023-03-07T19:35:42.820Z,74.30
2023-03-07T19:38:14.859Z,74.29
2023-03-07T19:41:00.909Z,75.32
2023-03-07T19:43:34.639Z,74.45
2023-03-07T19:46:19.204Z,73.87
2023-03-07T19:48:51.700Z,74.44
2023-03-07T19:51:27.046Z,73.83
2023-03-07T19:53:57.625Z,74.75
2023-03-07T19:56:35.933Z,75.60
2023-03-07T19:59:19.932Z,75.17
2023-03-07T20:01:52.666Z,75.02
2023-03-07T20:04:21.804Z,76.24
2023-03-07T20:06:50.730Z,75.70
2023-03-07T20:09:23.581Z,75.08
2023-03-07T20:11:59.515Z,74.97
2023-03-07T20:14:32.552Z,75.23
2023-03-07T20:17:01.656Z,75.94
2023-03-07T20:19:30.874Z,75.65
2023-03-07T20:22:10.456Z,75.43
2023-03-07T20:24:45.627Z,75.36
2023-03-07T20:27:24.793Z,75.34
2023-03-07T20:29:57.756Z,76.54
2023-03-07T20:32:35.953Z,76.13
2023-03-07T20:35:09.059Z,76.49
2023-03-07T20:37:38.136Z,75.60
2023-03-07T20:40:17.065Z,76.01
2023-03-07T20:42:57.237Z,76.52
2023-03-07T20:45:31.422Z,75.62
2023-03-07T20:48:03.603Z,75.30
2023-03-07T20:50:40.098Z,75.35
2023-03-07T20:53:30.943Z,75.14
2023-03-07T20:56:07.397Z,75.08
2023-03-07T20:58:44.141Z,75.21
2023-03-07T21:01:13.950Z,75.64
2023-03-07T21:03:42.886Z,75.45
2023-03-07T21:06:11.790Z,75.26
2023-03-07T21:08:40.689Z,75.28
2023-03-07T21:11:12.072Z,75.72
2023-03-07T21:13:45.831Z,75.65
2023-03-07T21:16:17.494Z,75.70
2023-03-07T21:18:47.055Z,75.81
2023-03-07T21:21:19.013Z,75.72
2023-03-07T21:23:48.557Z,75.97
2023-03-07T21:26:20.045Z,76.41
2023-03-07T21:28:51.663Z,76.93
2023-03-07T21:31:23.229Z,77.28
2023-03-07T21:33:55.816Z,78.96
2023-03-07T21:36:27.136Z,78.96
2023-03-07T21:38:57.231Z,78.80
2023-03-07T21:41:26.149Z,77.88
2023-03-07T21:43:57.992Z,78.04
2023-03-07T21:46:27.460Z,77.92
2023-03-07T21:48:59.013Z,78.32
2023-03-07T21:51:27.687Z,78.46
2023-03-07T21:53:56.339Z,78.11
2023-03-07T21:56:25.258Z,78.34
2023-03-07T21:58:55.607Z,78.46
2023-03-07T22:01:27.778Z,78.62
2023-03-07T22:03:59.294Z,78.90
2023-03-07T22:06:29.413Z,79.21
2023-03-07T22:08:59.744Z,78.81
2023-03-07T22:11:28.972Z,78.52
2023-03-07T22:13:58.988Z,78.06
2023-03-07T22:16:27.789Z,78.68
2023-03-07T22:18:57.358Z,78.67
2023-03-07T22:21:26.910Z,78.66
2023-03-07T22:23:58.165Z,78.53
2023-03-07T22:26:28.217Z,78.68
2023-03-07T22:28:59.111Z,78.30
2023-03-07T22:31:28.058Z,78.41
2023-03-07T22:33:58.882Z,78.35
2023-03-07T22:36:27.660Z,79.99
2023-03-07T22:38:57.368Z,80.06
2023-03-07T22:41:26.962Z,79.94
2023-03-07T22:43:55.999Z,79.73
2023-03-07T22:46:26.348Z,79.77
2023-03-07T22:48:57.051Z,79.82
2023-03-07T22:51:27.727Z,80.21
2023-03-07T22:53:56.883Z,80.09
2023-03-07T22:56:28.322Z,80.05
2023-03-07T22:58:57.510Z,80.21
2023-03-07T23:01:29.834Z,80.59
2023-03-07T23:04:01.049Z,80.23
2023-03-07T23:06:32.771Z,79.74
2023-03-07T23:09:07.830Z,79.97
2023-03-07T23:11:37.152Z,79.97
2023-03-07T23:14:05.892Z,79.84
2023-03-07T23:16:39.384Z,79.44
2023-03-07T23:19:08.182Z,79.02
2023-03-07T23:21:37.789Z,79.45
2023-03-07T23:24:07.040Z,79.51
2023-03-07T23:26:38.784Z,79.47
2023-03-07T23:29:11.687Z,79.46
2023-03-07T23:31:43.179Z,79.60
2023-03-07T23:34:18.079Z,79.17
2023-03-07T23:36:46.964Z,79.30
2023-03-07T23:39:17.533Z,79.29
2023-03-07T23:41:46.406Z,79.38
2023-03-07T23:44:15.372Z,79.64
2023-03-07T23:46:45.713Z,79.52
2023-03-07T23:49:15.553Z,79.92
2023-03-07T23:51:44.699Z,79.70
2023-03-07T23:54:13.395Z,80.03
2023-03-07T23:56:42.137Z,79.78
2023-03-07T23:59:10.878Z,79.91
